Englehart, Canada
Current Conditions -  °F | °C
As of 3:00 PM on Wednesday 28 Jan 2015 (Local Time) from CYXR Reporting Station
Clear Clear  
Wind Chill:   Ceiling: Unl
Heat Index:   Visibility: 9mi
Dew Point: -4°   Wind: 2mph
Humidity: 72%   Direction: 190°S
Pressure: 30.18"   Gusts: NA
Location:  47.82°N, 79.87°W
Report Text: CYXR 282000Z AUTO 19002KT 9SM CLR M16/M20 A3018 RMK SLP248
Loading
Personal Weather Stations






























Interactive Weather Map New forecast layout! Learn more

10-Day Weather Forecast

Advertisements
Track Severe Weather on mobile